createdAt,value
2022-10-08T00:01:55.330Z,16.55
2022-10-08T00:04:41.633Z,17.52
2022-10-08T00:07:27.513Z,20.03
2022-10-08T00:10:13.700Z,17.37
2022-10-08T00:13:01.071Z,15.32
2022-10-08T00:15:47.420Z,14.07
2022-10-08T00:18:33.214Z,15.23
2022-10-08T00:21:22.031Z,14.00
2022-10-08T00:24:11.081Z,14.00
2022-10-08T00:26:57.322Z,12.77
2022-10-08T00:29:44.704Z,14.40
2022-10-08T00:32:30.906Z,13.90
2022-10-08T00:35:17.353Z,13.43
2022-10-08T00:38:03.270Z,12.70
2022-10-08T00:40:49.276Z,11.70
2022-10-08T00:43:37.125Z,13.02
2022-10-08T00:46:44.086Z,13.73
2022-10-08T00:49:31.163Z,14.20
2022-10-08T00:52:19.078Z,10.40
2022-10-08T00:55:07.807Z,12.13
2022-10-08T00:57:55.652Z,11.93
2022-10-08T01:00:42.089Z,9.77
2022-10-08T01:03:28.460Z,8.85
2022-10-08T01:06:39.025Z,6.40
2022-10-08T01:09:35.864Z,7.18
2022-10-08T01:12:45.755Z,6.43
2022-10-08T01:16:00.886Z,6.10
2022-10-08T01:18:57.579Z,9.10
2022-10-08T01:22:10.385Z,6.88
2022-10-08T01:25:31.954Z,8.45
2022-10-08T01:28:43.866Z,7.90
2022-10-08T01:31:40.868Z,47.13
2022-10-08T01:34:49.817Z,6.03
2022-10-08T01:37:40.570Z,8.20
2022-10-08T01:40:32.271Z,11.35
2022-10-08T01:43:21.989Z,10.43
2022-10-08T01:46:14.206Z,7.43
2022-10-08T01:49:07.205Z,8.00
2022-10-08T01:52:01.790Z,25.67
2022-10-08T01:54:49.750Z,7.45
2022-10-08T01:57:38.130Z,9.05
2022-10-08T02:00:24.606Z,8.05
2022-10-08T02:03:13.773Z,17.77
2022-10-08T02:06:04.319Z,8.57
2022-10-08T02:08:50.590Z,12.95
2022-10-08T02:11:36.658Z,8.63
2022-10-08T02:14:25.942Z,7.03
2022-10-08T02:17:39.530Z,6.85
2022-10-08T02:20:37.258Z,11.50
2022-10-08T02:23:47.990Z,9.23
2022-10-08T02:26:40.435Z,8.00
2022-10-08T02:29:48.892Z,9.00
2022-10-08T02:33:00.111Z,9.20
2022-10-08T02:35:51.925Z,8.55
2022-10-08T02:38:49.633Z,8.75
2022-10-08T02:41:44.084Z,7.40
2022-10-08T02:44:38.903Z,8.45
2022-10-08T02:47:29.468Z,6.82
2022-10-08T02:50:20.306Z,9.30
2022-10-08T02:53:06.949Z,7.72
2022-10-08T02:56:14.249Z,4.68
2022-10-08T02:59:00.804Z,5.05
2022-10-08T03:01:57.538Z,5.00
2022-10-08T03:05:05.396Z,6.60
2022-10-08T03:10:41.328Z,4.90
2022-10-08T03:13:28.138Z,5.45
2022-10-08T03:16:18.515Z,6.18
2022-10-08T03:19:05.314Z,6.18
2022-10-08T03:24:42.200Z,7.65
2022-10-08T03:27:28.346Z,6.07
2022-10-08T03:30:14.462Z,8.10
2022-10-08T03:33:00.297Z,11.10
2022-10-08T03:35:47.060Z,8.73
2022-10-08T03:41:20.102Z,13.93
2022-10-08T03:44:10.756Z,10.05
2022-10-08T03:46:56.836Z,10.27
2022-10-08T03:49:42.798Z,8.93
2022-10-08T03:52:30.666Z,5.97
2022-10-08T03:55:17.411Z,10.60
2022-10-08T04:01:00.575Z,11.90
2022-10-08T04:03:46.580Z,9.50
2022-10-08T04:06:32.565Z,8.38
2022-10-08T04:09:18.625Z,9.05
2022-10-08T04:12:04.545Z,8.63
2022-10-08T04:14:50.408Z,8.77
2022-10-08T04:17:36.373Z,7.53
2022-10-08T04:20:22.378Z,8.65
2022-10-08T04:23:09.818Z,8.73
2022-10-08T04:28:48.121Z,8.32
2022-10-08T04:31:34.460Z,8.68
2022-10-08T04:34:21.036Z,8.57
2022-10-08T04:37:06.990Z,7.07
2022-10-08T04:39:52.869Z,7.53
2022-10-08T04:42:38.912Z,7.93
2022-10-08T04:45:24.772Z,8.50
2022-10-08T04:48:11.825Z,8.60
2022-10-08T04:51:00.715Z,7.45
2022-10-08T04:53:47.089Z,7.65
2022-10-08T04:56:35.530Z,6.50
2022-10-08T04:59:21.633Z,8.98
2022-10-08T05:02:07.634Z,11.97
2022-10-08T05:04:53.850Z,8.82
2022-10-08T05:07:39.855Z,7.90
2022-10-08T05:10:25.690Z,8.83
2022-10-08T05:13:11.651Z,8.23
2022-10-08T05:16:20.637Z,7.72
2022-10-08T05:19:06.954Z,9.05
2022-10-08T05:21:52.850Z,7.43
2022-10-08T05:24:38.913Z,9.73
2022-10-08T05:27:24.970Z,6.43
2022-10-08T05:30:11.458Z,9.17
2022-10-08T05:32:57.389Z,6.47
2022-10-08T05:35:43.328Z,8.73
2022-10-08T05:38:34.636Z,7.47
2022-10-08T05:41:26.835Z,9.07
2022-10-08T05:44:13.085Z,7.18
2022-10-08T05:46:59.413Z,7.15
2022-10-08T05:49:45.277Z,9.10
2022-10-08T05:52:31.329Z,7.90
2022-10-08T05:55:17.439Z,8.57
2022-10-08T05:58:03.350Z,7.63
2022-10-08T06:01:00.574Z,9.43
2022-10-08T06:03:51.425Z,11.23
2022-10-08T06:06:39.051Z,7.22
2022-10-08T06:09:25.068Z,7.40
2022-10-08T06:12:12.680Z,9.50
2022-10-08T06:14:58.790Z,7.35
2022-10-08T06:17:44.764Z,8.47
2022-10-08T06:20:32.119Z,7.90
2022-10-08T06:23:19.357Z,7.90
2022-10-08T06:26:07.501Z,6.97
2022-10-08T06:28:53.609Z,6.78
2022-10-08T06:31:39.750Z,7.22
2022-10-08T06:34:25.730Z,7.33
2022-10-08T06:37:11.619Z,10.00
2022-10-08T06:39:57.458Z,8.70
2022-10-08T06:42:43.522Z,8.50
2022-10-08T06:45:29.434Z,6.77
2022-10-08T06:48:15.534Z,8.30
2022-10-08T06:51:04.224Z,9.88
2022-10-08T06:53:58.653Z,8.15
2022-10-08T06:56:46.797Z,11.63
2022-10-08T06:59:33.889Z,9.88
2022-10-08T07:02:20.381Z,10.40
2022-10-08T07:05:07.082Z,8.55
2022-10-08T07:07:53.429Z,8.38
2022-10-08T07:10:39.437Z,6.97
2022-10-08T07:13:25.406Z,7.05
2022-10-08T07:16:20.788Z,11.17
2022-10-08T07:19:07.567Z,13.77
2022-10-08T07:21:56.739Z,8.63
2022-10-08T07:24:44.921Z,10.70
2022-10-08T07:27:30.953Z,9.77
2022-10-08T07:30:16.949Z,13.67
2022-10-08T07:33:02.870Z,12.98
2022-10-08T07:35:48.959Z,9.73
2022-10-08T07:38:35.365Z,9.07
2022-10-08T07:41:21.696Z,10.38
2022-10-08T07:44:08.369Z,9.05
2022-10-08T07:46:54.902Z,7.78
2022-10-08T07:49:41.067Z,8.70
2022-10-08T07:52:26.926Z,12.30
2022-10-08T07:55:12.714Z,12.93
2022-10-08T07:57:58.758Z,6.68
2022-10-08T08:00:44.828Z,13.02
2022-10-08T08:03:31.203Z,8.82
2022-10-08T08:06:17.154Z,8.23
2022-10-08T08:09:03.605Z,9.10
2022-10-08T08:11:49.584Z,13.63
2022-10-08T08:14:35.556Z,10.10
2022-10-08T08:17:21.621Z,7.10
2022-10-08T08:20:08.335Z,7.53
2022-10-08T08:22:54.378Z,8.80
2022-10-08T08:25:40.297Z,7.87
2022-10-08T08:28:26.461Z,10.18
2022-10-08T08:31:16.199Z,12.13
2022-10-08T08:34:08.598Z,8.13
2022-10-08T08:36:54.645Z,11.75
2022-10-08T08:39:41.154Z,10.93
2022-10-08T08:42:42.980Z,12.25
2022-10-08T08:45:46.439Z,13.10
2022-10-08T08:48:37.984Z,9.95
2022-10-08T08:51:24.396Z,11.25
2022-10-08T08:54:10.444Z,11.80
2022-10-08T08:56:59.211Z,11.03
2022-10-08T08:59:47.705Z,15.57
2022-10-08T09:02:44.606Z,10.48
2022-10-08T09:05:38.403Z,11.57
2022-10-08T09:08:32.169Z,10.90
2022-10-08T09:11:21.790Z,14.30
2022-10-08T09:14:11.782Z,10.52
2022-10-08T09:17:00.111Z,11.07
2022-10-08T09:19:48.515Z,10.48
2022-10-08T09:22:40.601Z,12.77
2022-10-08T09:25:31.267Z,12.00
2022-10-08T09:28:52.198Z,9.43
2022-10-08T09:31:47.816Z,10.88
2022-10-08T09:34:34.336Z,15.27
2022-10-08T09:37:24.770Z,15.70
2022-10-08T09:40:14.049Z,7.70
2022-10-08T09:43:18.358Z,17.67
2022-10-08T09:46:12.061Z,10.57
2022-10-08T09:49:21.532Z,9.82
2022-10-08T09:52:25.953Z,13.27
2022-10-08T09:55:31.502Z,12.70
2022-10-08T09:58:19.362Z,13.27
2022-10-08T10:01:13.924Z,9.38
2022-10-08T10:04:06.575Z,9.75
2022-10-08T10:06:55.612Z,9.68
2022-10-08T10:09:49.562Z,8.63
2022-10-08T10:12:39.462Z,12.43
2022-10-08T10:15:40.729Z,10.88
2022-10-08T10:18:51.253Z,13.30
2022-10-08T10:22:12.527Z,10.30
2022-10-08T10:25:13.817Z,7.78
2022-10-08T10:28:13.015Z,9.02
2022-10-08T10:31:06.040Z,8.35
2022-10-08T10:34:14.537Z,11.48
2022-10-08T10:37:19.532Z,10.73
2022-10-08T10:40:47.362Z,10.43
2022-10-08T10:43:39.864Z,10.00
2022-10-08T10:46:49.582Z,10.98
2022-10-08T10:49:38.472Z,14.70
2022-10-08T10:52:24.507Z,11.85
2022-10-08T10:55:20.375Z,10.40
2022-10-08T10:58:18.704Z,12.73
2022-10-08T11:01:05.019Z,10.32
2022-10-08T11:04:08.421Z,9.07
2022-10-08T11:07:25.382Z,12.40
2022-10-08T11:10:49.349Z,11.50
2022-10-08T11:14:06.823Z,10.32
2022-10-08T11:17:05.974Z,9.37
2022-10-08T11:20:16.655Z,16.67
2022-10-08T11:23:07.478Z,12.88
2022-10-08T11:26:22.493Z,17.83
2022-10-08T11:29:24.586Z,16.40
2022-10-08T11:32:14.889Z,18.77
2022-10-08T11:35:07.033Z,15.20
2022-10-08T11:38:04.378Z,12.55
2022-10-08T11:41:12.326Z,13.32
2022-10-08T11:46:45.488Z,15.03
2022-10-08T11:49:31.334Z,14.47
2022-10-08T11:52:17.369Z,14.87
2022-10-08T11:55:04.637Z,13.63
2022-10-08T11:58:09.105Z,12.52
2022-10-08T12:01:13.694Z,12.88
2022-10-08T12:04:10.823Z,13.63
2022-10-08T12:10:05.788Z,11.10
2022-10-08T12:12:52.583Z,14.48
2022-10-08T12:15:42.889Z,18.92
2022-10-08T12:18:30.742Z,14.10
2022-10-08T12:21:16.921Z,16.85
2022-10-08T12:24:02.938Z,14.23
2022-10-08T12:27:17.944Z,15.73
2022-10-08T12:30:12.940Z,14.68
2022-10-08T12:32:59.201Z,17.27
2022-10-08T12:36:06.334Z,14.87
2022-10-08T12:39:07.180Z,15.87
2022-10-08T12:42:16.508Z,12.93
2022-10-08T12:45:26.270Z,16.83
2022-10-08T12:48:25.254Z,15.18
2022-10-08T12:51:48.269Z,14.20
2022-10-08T12:54:34.849Z,20.10
2022-10-08T12:57:23.972Z,19.92
2022-10-08T13:00:31.981Z,14.10
2022-10-08T13:03:20.162Z,16.98
2022-10-08T13:06:31.625Z,18.55
2022-10-08T13:09:32.143Z,15.98
2022-10-08T13:12:18.045Z,16.15
2022-10-08T13:15:08.797Z,15.02
2022-10-08T13:17:54.752Z,15.18
2022-10-08T13:20:59.127Z,18.23
2022-10-08T13:23:45.324Z,15.98
2022-10-08T13:26:45.711Z,16.63
2022-10-08T13:29:34.509Z,15.80
2022-10-08T13:32:24.345Z,14.60
2022-10-08T13:35:22.085Z,14.55
2022-10-08T13:38:17.985Z,17.65
2022-10-08T13:41:06.304Z,14.05
2022-10-08T13:43:52.257Z,14.85
2022-10-08T13:46:38.367Z,18.88
2022-10-08T13:49:29.353Z,17.80
2022-10-08T13:52:24.198Z,16.55
2022-10-08T13:55:30.591Z,16.00
2022-10-08T13:58:19.389Z,19.40
2022-10-08T14:01:05.716Z,16.77
2022-10-08T14:03:51.753Z,19.40
2022-10-08T14:06:38.656Z,17.50
2022-10-08T14:09:27.636Z,18.80
2022-10-08T14:12:14.126Z,20.65
2022-10-08T14:15:00.976Z,18.00
2022-10-08T14:17:49.484Z,20.40
2022-10-08T14:20:37.280Z,21.50
2022-10-08T14:23:23.317Z,20.40
2022-10-08T14:26:12.997Z,17.00
2022-10-08T14:29:00.282Z,22.60
2022-10-08T14:31:46.619Z,21.52
2022-10-08T14:34:32.778Z,16.60
2022-10-08T14:37:18.581Z,18.92
2022-10-08T14:40:06.043Z,20.33
2022-10-08T14:42:52.205Z,18.25
2022-10-08T14:45:38.713Z,17.58
2022-10-08T14:48:25.005Z,25.52
2022-10-08T14:51:12.461Z,19.48
2022-10-08T14:53:58.222Z,17.80
2022-10-08T14:56:44.339Z,20.53
2022-10-08T14:59:30.290Z,21.77
2022-10-08T15:02:16.367Z,23.67
2022-10-08T15:05:02.436Z,20.67
2022-10-08T15:07:48.533Z,19.40
2022-10-08T15:10:35.125Z,23.02
2022-10-08T15:13:22.363Z,20.42
2022-10-08T15:16:12.910Z,15.50
2022-10-08T15:18:58.772Z,16.67
2022-10-08T15:21:44.790Z,17.95
2022-10-08T15:24:30.794Z,16.65
2022-10-08T15:27:20.562Z,18.50
2022-10-08T15:30:07.862Z,22.10
2022-10-08T15:32:54.178Z,21.80
2022-10-08T15:35:40.049Z,22.17
2022-10-08T15:38:26.066Z,20.35
2022-10-08T15:41:15.097Z,20.60
2022-10-08T15:44:13.768Z,21.60
2022-10-08T15:47:06.014Z,18.55
2022-10-08T15:49:51.954Z,23.48
2022-10-08T15:52:37.825Z,21.87
2022-10-08T15:55:23.957Z,24.17
2022-10-08T15:58:09.835Z,23.57
2022-10-08T16:00:55.820Z,30.88
2022-10-08T16:03:47.373Z,33.25
2022-10-08T16:06:35.907Z,25.58
2022-10-08T16:09:22.759Z,24.58
2022-10-08T16:14:54.986Z,24.13
2022-10-08T16:17:40.866Z,23.20
2022-10-08T16:20:26.699Z,25.27
2022-10-08T16:23:12.669Z,25.17
2022-10-08T16:26:02.915Z,27.93
2022-10-08T16:28:56.762Z,20.75
2022-10-08T16:31:44.659Z,21.88
2022-10-08T16:34:31.860Z,17.67
2022-10-08T16:37:18.239Z,18.20
2022-10-08T16:40:04.787Z,20.27
2022-10-08T16:42:54.025Z,28.10
2022-10-08T16:45:40.983Z,20.65
2022-10-08T16:48:27.082Z,19.48
2022-10-08T16:51:13.189Z,26.83
2022-10-08T16:54:00.777Z,21.52
2022-10-08T16:56:47.267Z,20.13
2022-10-08T16:59:33.187Z,23.40
2022-10-08T17:02:23.657Z,22.95
2022-10-08T17:05:11.697Z,22.23
2022-10-08T17:07:57.850Z,20.13
2022-10-08T17:10:43.719Z,17.20
2022-10-08T17:13:29.642Z,19.73
2022-10-08T17:16:17.139Z,15.87
2022-10-08T17:19:03.925Z,22.20
2022-10-08T17:21:49.871Z,19.17
2022-10-08T17:24:40.180Z,25.55
2022-10-08T17:27:28.330Z,18.02
2022-10-08T17:30:15.762Z,18.27
2022-10-08T17:33:01.608Z,20.38
2022-10-08T17:35:47.782Z,27.60
2022-10-08T17:38:37.625Z,23.30
2022-10-08T17:41:32.230Z,27.30
2022-10-08T17:44:18.468Z,20.05
2022-10-08T17:47:04.460Z,18.97
2022-10-08T17:49:50.448Z,13.95
2022-10-08T17:52:36.253Z,12.32
2022-10-08T17:55:22.446Z,13.15
2022-10-08T17:58:08.476Z,8.60
2022-10-08T18:01:07.031Z,12.23
2022-10-08T18:04:02.231Z,12.65
2022-10-08T18:06:48.695Z,14.32
2022-10-08T18:09:34.610Z,10.75
2022-10-08T18:12:20.412Z,12.37
2022-10-08T18:15:06.804Z,14.27
2022-10-08T18:17:52.913Z,12.60
2022-10-08T18:20:39.386Z,15.68
2022-10-08T18:23:25.546Z,15.00
2022-10-08T18:26:17.454Z,13.05
2022-10-08T18:29:10.129Z,13.65
2022-10-08T18:31:56.358Z,16.23
2022-10-08T18:34:42.422Z,12.30
2022-10-08T18:37:28.384Z,15.50
2022-10-08T18:40:14.326Z,9.43
2022-10-08T18:43:00.462Z,9.18
2022-10-08T18:45:46.579Z,12.82
2022-10-08T18:48:34.333Z,9.05
2022-10-08T18:51:23.213Z,8.60
2022-10-08T18:54:10.665Z,7.43
2022-10-08T18:56:58.878Z,8.70
2022-10-08T18:59:45.028Z,12.77
2022-10-08T19:02:31.120Z,13.40
2022-10-08T19:05:17.607Z,8.82
2022-10-08T19:08:04.177Z,15.02
2022-10-08T19:10:50.184Z,14.95
2022-10-08T19:13:35.950Z,8.50
2022-10-08T19:16:22.197Z,11.55
2022-10-08T19:19:23.103Z,11.55
2022-10-08T19:22:09.330Z,8.05
2022-10-08T19:24:55.471Z,9.57
2022-10-08T19:27:41.413Z,12.93
2022-10-08T19:30:32.574Z,11.50
2022-10-08T19:33:18.979Z,13.43
2022-10-08T19:36:05.845Z,9.00
2022-10-08T19:41:39.191Z,11.30
2022-10-08T19:44:26.001Z,7.47
2022-10-08T19:47:11.805Z,7.05
2022-10-08T19:49:57.823Z,8.88
2022-10-08T19:52:46.506Z,9.93
2022-10-08T19:55:38.319Z,8.77
2022-10-08T19:58:24.145Z,8.23
2022-10-08T20:01:14.172Z,8.20
2022-10-08T20:04:01.711Z,7.93
2022-10-08T20:06:47.742Z,8.85
2022-10-08T20:09:36.192Z,9.93
2022-10-08T20:12:22.631Z,11.48
2022-10-08T20:15:10.052Z,9.20
2022-10-08T20:17:56.172Z,11.95
2022-10-08T20:20:42.131Z,8.40
2022-10-08T20:23:28.106Z,12.00
2022-10-08T20:26:18.394Z,9.80
2022-10-08T20:29:10.202Z,11.18
2022-10-08T20:31:56.443Z,8.13
2022-10-08T20:34:42.710Z,6.50
2022-10-08T20:37:28.579Z,7.83
2022-10-08T20:40:14.678Z,23.67
2022-10-08T20:43:00.721Z,6.22
2022-10-08T20:45:46.704Z,5.50
2022-10-08T20:48:34.019Z,7.93
2022-10-08T20:51:22.786Z,9.70
2022-10-08T20:54:12.388Z,10.60
2022-10-08T20:56:58.313Z,12.82
2022-10-08T20:59:44.404Z,13.57
2022-10-08T21:02:30.781Z,10.23
2022-10-08T21:05:16.714Z,8.20
2022-10-08T21:08:02.845Z,7.63
2022-10-08T21:10:48.828Z,31.63
2022-10-08T21:13:35.810Z,6.03
2022-10-08T21:16:27.568Z,11.82
2022-10-08T21:19:23.267Z,13.48
2022-10-08T21:22:09.473Z,11.20
2022-10-08T21:24:55.501Z,9.48
2022-10-08T21:27:41.268Z,9.35
2022-10-08T21:30:27.214Z,11.40
2022-10-08T21:33:13.118Z,13.77
2022-10-08T21:35:59.170Z,11.48
2022-10-08T21:38:45.628Z,11.48
2022-10-08T21:41:33.289Z,7.82
2022-10-08T21:44:19.341Z,8.43
2022-10-08T21:47:05.614Z,9.35
2022-10-08T21:49:51.466Z,6.45
2022-10-08T21:52:37.482Z,8.50
2022-10-08T21:55:24.082Z,9.52
2022-10-08T21:58:10.286Z,8.40
2022-10-08T22:00:56.405Z,9.93
2022-10-08T22:03:42.581Z,13.07
2022-10-08T22:06:32.128Z,15.05
2022-10-08T22:09:23.762Z,5.28
2022-10-08T22:12:09.689Z,5.38
2022-10-08T22:14:55.519Z,5.35
2022-10-08T22:17:41.392Z,2.53
2022-10-08T22:20:27.415Z,6.50
2022-10-08T22:23:14.469Z,6.07
2022-10-08T22:26:03.966Z,5.88
2022-10-08T22:28:50.720Z,5.70
2022-10-08T22:31:37.484Z,9.63
2022-10-08T22:37:09.929Z,6.68
2022-10-08T22:39:56.312Z,6.90
2022-10-08T22:42:42.127Z,8.25
2022-10-08T22:45:28.692Z,9.13
2022-10-08T22:48:14.459Z,6.78
2022-10-08T22:51:02.581Z,9.37
2022-10-08T22:53:49.253Z,6.85
2022-10-08T22:56:35.354Z,7.05
2022-10-08T22:59:21.321Z,3.70
2022-10-08T23:02:07.219Z,4.87
2022-10-08T23:04:53.183Z,6.73
2022-10-08T23:07:39.090Z,21.53
2022-10-08T23:10:25.641Z,4.60
2022-10-08T23:13:11.488Z,3.40
2022-10-08T23:16:25.483Z,2.47
2022-10-08T23:19:12.143Z,4.47
2022-10-08T23:21:58.223Z,8.18
2022-10-08T23:24:44.573Z,4.00
2022-10-08T23:27:30.465Z,6.13
2022-10-08T23:30:38.455Z,4.82
2022-10-08T23:33:22.719Z,3.80
2022-10-08T23:36:10.912Z,2.97
2022-10-08T23:38:57.114Z,4.75
2022-10-08T23:41:43.325Z,3.65
2022-10-08T23:44:29.521Z,7.30
2022-10-08T23:47:15.414Z,10.70
2022-10-08T23:50:01.380Z,9.40
2022-10-08T23:52:47.465Z,10.03
2022-10-08T23:55:33.576Z,6.85
2022-10-08T23:58:20.129Z,2.97
